McGhee Tyson Airport Knoxville US
ICAO: KTYS
IATA: TYS
Category: Large
Scheduled Services: Yes

Elevation: 981 ft
TransAlt. 18000 ft.

Airport Communications:
KNOXVILLE APP/DEP:36.08
KNOXVILLE APP/DEP:118
ATIS:128.35
CLNC DEL:121.65
KNOXVILLE GND:121.9
ARNG OPS:41.5
PTD:30.3
NASHVILLE RDO:122.2
KNOXVILLE TWR:121.2
UNICOM:122.95

KTYS Zoom In..

Runways:

(A) RW 05L length 9005 ft width 150 ft
ILS 110.30 / hdg 48

(B) RW 05R length 9000 ft width 150 ft
---- / hdg 48

(C) RW 23L length 9000 ft width 150 ft
---- / hdg 228

(D) RW 23R length 9005 ft width 150 ft
ILS 111.70 / hdg 228

Location; KTYS
Day. 22 / Time. 03.53 Zulu
* Altimeter: 30.15
* Temperature: 07° c. 44.6°f.
* Wind from: KTY° Speed S kn.
Dewpoint: 04° c.
Visibility: 10 Statute Miles.
Clouds: Scattered 15000 ft.

KTYS 220353Z 08004KT 10SM SCT150 07/04 A3015 RMK AO2 SLP210 T00670044


Wind From KTY°
Speed S kn.

jpsM music video
CHECK IT OUT

jpsM - It Moves..

 
jpsmedia.com for Web Design  worldairports.se 2018   terms of use